createdAt,value
2023-01-29T00:02:05.943Z,26.10
2023-01-29T00:05:25.983Z,22.23
2023-01-29T00:08:30.394Z,22.43
2023-01-29T00:11:33.439Z,21.62
2023-01-29T00:14:36.124Z,24.75
2023-01-29T00:17:39.200Z,24.27
2023-01-29T00:20:43.965Z,23.35
2023-01-29T00:23:47.405Z,25.37
2023-01-29T00:26:50.476Z,24.33
2023-01-29T00:30:11.573Z,25.80
2023-01-29T00:33:14.413Z,25.65
2023-01-29T00:36:20.648Z,24.47
2023-01-29T00:39:31.447Z,23.60
2023-01-29T00:42:58.283Z,23.02
2023-01-29T00:46:01.021Z,23.67
2023-01-29T00:49:04.741Z,19.52
2023-01-29T00:52:25.651Z,19.77
2023-01-29T00:55:28.716Z,23.23
2023-01-29T00:58:34.599Z,13.35
2023-01-29T01:01:56.439Z,11.55
2023-01-29T01:04:59.300Z,20.70
2023-01-29T01:08:02.446Z,10.97
2023-01-29T01:11:06.977Z,18.30
2023-01-29T01:14:10.095Z,19.02
2023-01-29T01:17:12.872Z,25.02
2023-01-29T01:20:16.301Z,22.52
2023-01-29T01:23:20.033Z,13.50
2023-01-29T01:26:23.162Z,20.12
2023-01-29T01:29:25.904Z,21.65
2023-01-29T01:32:29.050Z,19.35
2023-01-29T01:35:32.127Z,23.50
2023-01-29T01:38:36.356Z,21.70
2023-01-29T01:41:39.086Z,23.40
2023-01-29T01:45:01.503Z,24.12
2023-01-29T01:48:04.240Z,21.83
2023-01-29T01:51:07.541Z,27.07
2023-01-29T01:54:21.638Z,22.42
2023-01-29T01:57:27.218Z,21.42
2023-01-29T02:00:29.958Z,20.85
2023-01-29T02:03:58.659Z,29.15
2023-01-29T02:07:23.248Z,24.57
2023-01-29T02:10:27.943Z,11.20
2023-01-29T02:13:31.514Z,24.27
2023-01-29T02:16:36.891Z,22.98
2023-01-29T02:19:57.700Z,28.10
2023-01-29T02:23:16.201Z,10.07
2023-01-29T02:26:44.860Z,24.85
2023-01-29T02:30:00.172Z,15.80
2023-01-29T02:33:11.983Z,19.45
2023-01-29T02:36:20.641Z,25.42
2023-01-29T02:39:42.597Z,20.70
2023-01-29T02:42:56.111Z,12.37
2023-01-29T02:46:02.037Z,24.85
2023-01-29T02:49:32.197Z,22.20
2023-01-29T02:52:51.073Z,23.08
2023-01-29T02:56:00.399Z,10.87
2023-01-29T02:59:17.507Z,22.87
2023-01-29T03:02:29.350Z,18.12
2023-01-29T03:06:02.401Z,14.90
2023-01-29T03:09:13.329Z,20.83
2023-01-29T03:12:34.222Z,22.33
2023-01-29T03:15:47.119Z,18.33
2023-01-29T03:18:58.618Z,15.60
2023-01-29T03:22:04.805Z,16.30
2023-01-29T03:25:28.708Z,16.77
2023-01-29T03:28:51.994Z,16.53
2023-01-29T03:32:09.681Z,19.40
2023-01-29T03:35:21.251Z,13.13
2023-01-29T03:38:29.745Z,14.52
2023-01-29T03:41:37.182Z,10.98
2023-01-29T03:45:22.287Z,16.10
2023-01-29T03:48:40.391Z,15.07
2023-01-29T03:51:57.847Z,10.43
2023-01-29T03:55:16.324Z,15.98
2023-01-29T03:58:46.079Z,16.75
2023-01-29T04:01:54.611Z,15.07
2023-01-29T04:05:02.314Z,13.27
2023-01-29T04:08:15.728Z,9.93
2023-01-29T04:11:21.778Z,9.13
2023-01-29T04:14:25.316Z,14.45
2023-01-29T04:17:35.019Z,9.07
2023-01-29T04:20:38.491Z,11.02
2023-01-29T04:23:41.651Z,10.68
2023-01-29T04:26:53.233Z,13.73
2023-01-29T04:30:30.927Z,13.85
2023-01-29T04:33:53.390Z,11.27
2023-01-29T04:37:27.581Z,12.32
2023-01-29T04:40:43.452Z,11.00
2023-01-29T04:43:59.584Z,11.65
2023-01-29T04:47:06.746Z,9.05
2023-01-29T04:50:18.831Z,8.20
2023-01-29T04:53:24.481Z,11.15
2023-01-29T04:56:51.947Z,11.32
2023-01-29T05:00:04.149Z,10.55
2023-01-29T05:03:09.826Z,9.05
2023-01-29T05:06:14.190Z,11.70
2023-01-29T05:09:18.140Z,9.55
2023-01-29T05:12:23.116Z,8.57
2023-01-29T05:15:43.156Z,11.10
2023-01-29T05:18:46.904Z,9.77
2023-01-29T05:21:50.640Z,9.33
2023-01-29T05:24:53.302Z,6.47
2023-01-29T05:28:14.216Z,8.60
2023-01-29T05:31:17.009Z,8.63
2023-01-29T05:34:20.155Z,7.20
2023-01-29T05:37:22.972Z,8.87
2023-01-29T05:40:26.051Z,9.63
2023-01-29T05:43:28.817Z,7.50
2023-01-29T05:46:31.857Z,7.55
2023-01-29T05:49:34.637Z,5.65
2023-01-29T05:52:37.877Z,5.27
2023-01-29T05:55:40.836Z,7.75
2023-01-29T05:58:43.906Z,7.87
2023-01-29T06:01:46.647Z,6.97
2023-01-29T06:04:52.398Z,6.30
2023-01-29T06:07:55.431Z,7.40
2023-01-29T06:10:58.633Z,5.80
2023-01-29T06:14:01.375Z,8.32
2023-01-29T06:17:05.139Z,7.50
2023-01-29T06:20:08.804Z,5.65
2023-01-29T06:23:11.850Z,8.00
2023-01-29T06:26:15.815Z,9.13
2023-01-29T06:29:18.939Z,8.90
2023-01-29T06:32:21.562Z,13.95
2023-01-29T06:35:26.099Z,7.15
2023-01-29T06:38:29.278Z,6.60
2023-01-29T06:41:32.347Z,5.32
2023-01-29T06:44:35.117Z,5.12
2023-01-29T06:47:38.088Z,8.35
2023-01-29T06:50:40.764Z,7.53
2023-01-29T06:53:46.066Z,7.13
2023-01-29T06:56:49.248Z,8.35
2023-01-29T06:59:52.361Z,8.63
2023-01-29T07:02:55.044Z,7.57
2023-01-29T07:05:58.041Z,5.78
2023-01-29T07:09:00.995Z,10.30
2023-01-29T07:12:04.951Z,4.50
2023-01-29T07:15:08.196Z,9.75
2023-01-29T07:18:14.219Z,4.93
2023-01-29T07:21:16.962Z,7.15
2023-01-29T07:24:20.198Z,5.23
2023-01-29T07:27:23.002Z,7.68
2023-01-29T07:30:26.032Z,8.82
2023-01-29T07:33:28.757Z,4.18
2023-01-29T07:36:31.739Z,8.85
2023-01-29T07:39:34.492Z,8.03
2023-01-29T07:42:40.093Z,6.18
2023-01-29T07:45:42.812Z,7.82
2023-01-29T07:48:46.032Z,8.77
2023-01-29T07:51:48.748Z,7.28
2023-01-29T07:54:51.841Z,6.37
2023-01-29T07:57:58.949Z,4.12
2023-01-29T08:01:07.843Z,4.07
2023-01-29T08:04:10.903Z,6.93
2023-01-29T08:07:14.135Z,5.45
2023-01-29T08:10:17.611Z,8.30
2023-01-29T08:13:20.665Z,7.03
2023-01-29T08:16:23.921Z,8.18
2023-01-29T08:19:26.837Z,7.68
2023-01-29T08:22:29.974Z,7.20
2023-01-29T08:25:33.750Z,12.03
2023-01-29T08:28:38.896Z,9.10
2023-01-29T08:31:41.647Z,14.75
2023-01-29T08:34:44.675Z,9.00
2023-01-29T08:37:59.630Z,12.03
2023-01-29T08:41:02.804Z,11.27
2023-01-29T08:44:05.795Z,7.22
2023-01-29T08:47:08.820Z,8.48
2023-01-29T08:50:12.000Z,8.75
2023-01-29T08:53:15.171Z,7.10
2023-01-29T08:56:17.993Z,8.52
2023-01-29T08:59:23.008Z,9.50
2023-01-29T09:02:26.058Z,10.50
2023-01-29T09:05:29.432Z,6.65
2023-01-29T09:08:32.214Z,12.40
2023-01-29T09:11:35.357Z,7.60
2023-01-29T09:14:38.281Z,6.78
2023-01-29T09:17:41.483Z,8.35
2023-01-29T09:20:44.274Z,6.35
2023-01-29T09:23:47.424Z,8.83
2023-01-29T09:26:50.254Z,6.72
2023-01-29T09:29:53.325Z,9.05
2023-01-29T09:32:56.073Z,8.10
2023-01-29T09:35:59.243Z,6.15
2023-01-29T09:39:02.136Z,7.10
2023-01-29T09:42:27.162Z,7.27
2023-01-29T09:45:31.874Z,5.80
2023-01-29T09:48:36.800Z,6.55
2023-01-29T09:51:49.317Z,5.00
2023-01-29T09:55:06.688Z,6.27
2023-01-29T09:58:18.379Z,4.60
2023-01-29T10:01:33.408Z,8.52
2023-01-29T10:05:30.889Z,7.03
2023-01-29T10:08:57.882Z,7.00
2023-01-29T10:12:37.021Z,9.53
2023-01-29T10:15:51.879Z,7.77
2023-01-29T10:19:26.127Z,10.45
2023-01-29T10:22:37.958Z,7.90
2023-01-29T10:25:43.412Z,7.57
2023-01-29T10:28:50.889Z,8.13
2023-01-29T10:32:05.195Z,9.57
2023-01-29T10:35:29.962Z,9.07
2023-01-29T10:38:46.317Z,8.60
2023-01-29T10:42:05.939Z,10.73
2023-01-29T10:45:35.279Z,9.90
2023-01-29T10:49:15.589Z,7.82
2023-01-29T10:52:51.921Z,5.05
2023-01-29T10:56:02.481Z,6.25
2023-01-29T10:59:42.856Z,10.45
2023-01-29T11:02:49.052Z,12.73
2023-01-29T11:05:59.722Z,9.25
2023-01-29T11:09:11.230Z,8.57
2023-01-29T11:12:18.599Z,5.60
2023-01-29T11:15:32.708Z,14.70
2023-01-29T11:18:53.918Z,10.80
2023-01-29T11:22:00.328Z,13.00
2023-01-29T11:25:21.200Z,9.07
2023-01-29T11:28:38.750Z,9.43
2023-01-29T11:31:41.988Z,9.98
2023-01-29T11:35:09.905Z,10.87
2023-01-29T11:38:21.476Z,9.27
2023-01-29T11:41:25.625Z,5.15
2023-01-29T11:44:41.560Z,8.05
2023-01-29T11:47:53.023Z,9.23
2023-01-29T11:51:00.960Z,9.47
2023-01-29T11:54:05.716Z,9.30
2023-01-29T11:57:28.108Z,10.70
2023-01-29T12:00:35.478Z,13.62
2023-01-29T12:03:44.978Z,10.48
2023-01-29T12:06:52.510Z,13.50
2023-01-29T12:09:58.914Z,8.90
2023-01-29T12:13:25.886Z,11.30
2023-01-29T12:16:41.027Z,11.20
2023-01-29T12:19:54.342Z,7.43
2023-01-29T12:23:12.210Z,8.27
2023-01-29T12:26:25.633Z,10.80
2023-01-29T12:29:33.910Z,14.05
2023-01-29T12:32:47.028Z,14.48
2023-01-29T12:36:31.735Z,6.15
2023-01-29T12:39:34.753Z,11.93
2023-01-29T12:42:42.212Z,10.07
2023-01-29T12:45:52.636Z,9.43
2023-01-29T12:48:59.837Z,9.13
2023-01-29T12:52:11.743Z,11.10
2023-01-29T12:55:39.953Z,9.77
2023-01-29T12:58:47.839Z,11.70
2023-01-29T13:01:56.107Z,7.05
2023-01-29T13:05:24.704Z,8.98
2023-01-29T13:08:37.340Z,11.75
2023-01-29T13:11:53.871Z,10.20
2023-01-29T13:14:59.268Z,8.37
2023-01-29T13:18:29.725Z,13.25
2023-01-29T13:21:41.050Z,12.25
2023-01-29T13:24:55.473Z,11.32
2023-01-29T13:28:17.004Z,7.17
2023-01-29T13:31:38.086Z,10.40
2023-01-29T13:34:47.494Z,8.77
2023-01-29T13:37:55.313Z,8.10
2023-01-29T13:41:05.681Z,10.57
2023-01-29T13:44:21.351Z,9.97
2023-01-29T13:47:32.354Z,11.00
2023-01-29T13:50:42.088Z,9.10
2023-01-29T13:53:57.410Z,6.35
2023-01-29T13:57:01.755Z,9.13
2023-01-29T14:00:06.632Z,9.83
2023-01-29T14:03:11.972Z,6.13
2023-01-29T14:06:40.596Z,10.35
2023-01-29T14:09:43.963Z,9.95
2023-01-29T14:12:48.445Z,13.13
2023-01-29T14:15:57.614Z,10.97
2023-01-29T14:19:02.792Z,9.37
2023-01-29T14:22:06.408Z,7.15
2023-01-29T14:25:20.065Z,8.30
2023-01-29T14:28:27.295Z,8.65
2023-01-29T14:31:47.854Z,9.87
2023-01-29T14:34:59.561Z,11.23
2023-01-29T14:38:07.516Z,9.50
2023-01-29T14:41:30.277Z,10.35
2023-01-29T14:44:45.999Z,10.43
2023-01-29T14:47:49.061Z,8.87
2023-01-29T14:50:57.019Z,11.93
2023-01-29T14:54:16.186Z,10.85
2023-01-29T14:57:20.596Z,8.98
2023-01-29T15:00:31.797Z,11.23
2023-01-29T15:03:50.819Z,14.50
2023-01-29T15:07:15.921Z,16.87
2023-01-29T15:10:27.975Z,18.92
2023-01-29T15:13:39.815Z,14.52
2023-01-29T15:17:18.916Z,10.98
2023-01-29T15:20:30.022Z,12.43
2023-01-29T15:23:35.220Z,17.27
2023-01-29T15:26:38.824Z,14.75
2023-01-29T15:29:44.400Z,10.50
2023-01-29T15:32:49.925Z,8.73
2023-01-29T15:36:09.217Z,10.40
2023-01-29T15:39:12.362Z,15.45
2023-01-29T15:42:24.092Z,14.63
2023-01-29T15:45:34.296Z,16.15
2023-01-29T15:48:41.854Z,14.23
2023-01-29T15:51:48.127Z,7.30
2023-01-29T15:54:51.880Z,12.95
2023-01-29T15:57:58.144Z,9.30
2023-01-29T16:01:02.582Z,15.88
2023-01-29T16:04:06.543Z,9.77
2023-01-29T16:07:13.596Z,14.43
2023-01-29T16:10:24.898Z,9.45
2023-01-29T16:13:36.296Z,12.23
2023-01-29T16:16:40.861Z,7.47
2023-01-29T16:19:44.174Z,13.30
2023-01-29T16:22:48.369Z,11.77
2023-01-29T16:25:54.336Z,7.62
2023-01-29T16:29:09.429Z,8.80
2023-01-29T16:32:17.558Z,15.75
2023-01-29T16:35:22.326Z,9.73
2023-01-29T16:38:36.156Z,12.17
2023-01-29T16:41:41.722Z,14.00
2023-01-29T16:45:08.085Z,12.60
2023-01-29T16:48:33.076Z,6.53
2023-01-29T16:51:49.626Z,9.93
2023-01-29T16:55:22.216Z,12.40
2023-01-29T16:58:28.469Z,12.45
2023-01-29T17:01:35.213Z,11.23
2023-01-29T17:04:42.241Z,13.30
2023-01-29T17:07:48.781Z,12.88
2023-01-29T17:10:54.041Z,16.10
2023-01-29T17:13:58.863Z,15.57
2023-01-29T17:17:07.602Z,15.73
2023-01-29T17:20:17.304Z,15.23
2023-01-29T17:23:21.867Z,16.87
2023-01-29T17:26:31.979Z,15.88
2023-01-29T17:29:36.256Z,16.10
2023-01-29T17:32:45.212Z,13.05
2023-01-29T17:35:51.681Z,18.92
2023-01-29T17:38:56.678Z,15.80
2023-01-29T17:42:02.002Z,13.65
2023-01-29T17:45:07.084Z,15.23
2023-01-29T17:48:20.853Z,19.27
2023-01-29T17:51:25.070Z,18.53
2023-01-29T17:54:29.411Z,19.65
2023-01-29T17:57:34.268Z,15.63
2023-01-29T18:00:38.020Z,17.60
2023-01-29T18:03:42.264Z,10.30
2023-01-29T18:06:48.645Z,9.93
2023-01-29T18:09:52.288Z,17.87
2023-01-29T18:12:57.301Z,13.27
2023-01-29T18:16:02.497Z,19.83
2023-01-29T18:19:33.059Z,16.33
2023-01-29T18:22:37.166Z,15.57
2023-01-29T18:25:40.714Z,20.23
2023-01-29T18:28:44.997Z,19.77
2023-01-29T18:31:50.283Z,19.17
2023-01-29T18:34:54.880Z,19.17
2023-01-29T18:37:58.834Z,19.70
2023-01-29T18:41:11.278Z,19.98
2023-01-29T18:44:15.098Z,20.05
2023-01-29T18:47:18.622Z,16.90
2023-01-29T18:50:24.083Z,21.33
2023-01-29T18:53:29.111Z,26.90
2023-01-29T18:56:34.760Z,27.27
2023-01-29T18:59:39.060Z,20.00
2023-01-29T19:02:43.658Z,23.38
2023-01-29T19:05:49.773Z,18.77
2023-01-29T19:09:02.650Z,16.85
2023-01-29T19:12:09.021Z,10.97
2023-01-29T19:15:13.439Z,18.08
2023-01-29T19:18:17.952Z,24.33
2023-01-29T19:21:22.768Z,26.98
2023-01-29T19:24:28.372Z,26.23
2023-01-29T19:27:32.887Z,23.35
2023-01-29T19:30:37.809Z,25.30
2023-01-29T19:33:43.959Z,22.17
2023-01-29T19:36:48.390Z,23.60
2023-01-29T19:39:52.536Z,21.33
2023-01-29T19:43:00.418Z,20.83
2023-01-29T19:46:04.268Z,22.27
2023-01-29T19:49:10.958Z,35.10
2023-01-29T19:52:51.245Z,32.67
2023-01-29T19:56:08.718Z,26.62
2023-01-29T19:59:15.548Z,20.62
2023-01-29T20:02:20.162Z,24.60
2023-01-29T20:05:24.386Z,25.17
2023-01-29T20:08:27.696Z,28.38
2023-01-29T20:11:32.582Z,26.92
2023-01-29T20:14:36.113Z,23.95
2023-01-29T20:17:41.984Z,20.27
2023-01-29T20:20:50.071Z,21.90
2023-01-29T20:23:54.981Z,24.85
2023-01-29T20:26:59.627Z,24.75
2023-01-29T20:30:03.779Z,29.23
2023-01-29T20:33:08.470Z,26.08
2023-01-29T20:36:15.385Z,29.25
2023-01-29T20:39:20.323Z,21.02
2023-01-29T20:42:27.405Z,24.53
2023-01-29T20:45:33.297Z,21.42
2023-01-29T20:48:39.836Z,25.23
2023-01-29T20:51:45.257Z,27.42
2023-01-29T20:54:49.600Z,23.57
2023-01-29T20:58:06.499Z,28.75
2023-01-29T21:01:13.368Z,27.58
2023-01-29T21:04:17.547Z,29.27
2023-01-29T21:07:23.534Z,31.52
2023-01-29T21:10:27.580Z,31.40
2023-01-29T21:13:32.616Z,31.00
2023-01-29T21:16:36.624Z,31.15
2023-01-29T21:19:43.762Z,29.58
2023-01-29T21:22:49.449Z,32.00
2023-01-29T21:25:53.419Z,32.83
2023-01-29T21:28:56.961Z,36.22
2023-01-29T21:32:00.861Z,30.75
2023-01-29T21:35:04.757Z,34.77
2023-01-29T21:38:08.095Z,32.70
2023-01-29T21:41:11.308Z,30.70
2023-01-29T21:44:16.205Z,30.80
2023-01-29T21:47:19.409Z,33.38
2023-01-29T21:50:23.314Z,36.30
2023-01-29T21:53:27.142Z,30.17
2023-01-29T21:56:30.268Z,34.38
2023-01-29T21:59:33.117Z,33.38
2023-01-29T22:02:36.227Z,32.27
2023-01-29T22:05:39.708Z,34.45
2023-01-29T22:08:42.466Z,34.10
2023-01-29T22:11:45.690Z,33.30
2023-01-29T22:14:48.511Z,32.33
2023-01-29T22:17:51.587Z,36.78
2023-01-29T22:20:55.488Z,33.67
2023-01-29T22:23:58.496Z,33.60
2023-01-29T22:27:01.251Z,30.88
2023-01-29T22:30:05.768Z,27.80
2023-01-29T22:33:10.533Z,31.12
2023-01-29T22:36:13.631Z,31.20
2023-01-29T22:39:16.336Z,30.80
2023-01-29T22:42:20.743Z,29.50
2023-01-29T22:45:23.492Z,33.92
2023-01-29T22:48:27.110Z,32.30
2023-01-29T22:51:29.849Z,29.33
2023-01-29T22:54:32.823Z,34.20
2023-01-29T22:57:36.021Z,35.35
2023-01-29T23:00:39.038Z,36.20
2023-01-29T23:03:41.791Z,33.55
2023-01-29T23:06:44.865Z,31.80
2023-01-29T23:09:47.539Z,31.85
2023-01-29T23:12:50.654Z,27.02
2023-01-29T23:15:59.919Z,29.23
2023-01-29T23:19:03.121Z,31.65
2023-01-29T23:22:05.863Z,30.93
2023-01-29T23:25:09.547Z,34.80
2023-01-29T23:28:12.303Z,28.60
2023-01-29T23:31:15.947Z,32.80
2023-01-29T23:34:18.880Z,29.50
2023-01-29T23:37:21.971Z,30.62
2023-01-29T23:40:24.672Z,33.63
2023-01-29T23:43:28.730Z,28.58
2023-01-29T23:46:32.068Z,28.00
2023-01-29T23:49:35.500Z,29.37
2023-01-29T23:52:39.054Z,25.83
2023-01-29T23:55:42.531Z,28.08
2023-01-29T23:58:45.320Z,30.37
